Time;durP1;ratioP1;P1;durP2;ratioP2;P2;SDS_P1;SDS_P2;PMS_P1;PMS_P2;Temp;Humidity;BMP_temperature;BMP_pressure;BME280_temperature;BME280_humidity;BME280_pressure;Samples;Min_cycle;Max_cycle;Signal;HPM_P1;HPM_P2
2022/01/17 00:00:19;;;;;;;3.45;1.98;;;2.20;83.50;;;;;;1924607;74;21019;-43
2022/01/17 00:02:50;;;;;;;2.95;2.00;;;2.20;83.40;;;;;;1924709;74;20999;-42
2022/01/17 00:05:20;;;;;;;5.85;2.77;;;2.20;83.30;;;;;;1924732;74;21112;-42
2022/01/17 00:07:49;;;;;;;4.42;2.30;;;2.20;83.30;;;;;;1924655;74;21136;-42
2022/01/17 00:10:19;;;;;;;4.17;1.70;;;2.20;83.50;;;;;;1924634;74;21090;-42
2022/01/17 00:12:51;;;;;;;3.80;2.20;;;2.20;83.90;;;;;;1924814;74;21019;-42
2022/01/17 00:15:26;;;;;;;2.30;1.90;;;2.30;83.60;;;;;;1924745;74;21082;-42
2022/01/17 00:18:08;;;;;;;3.95;2.20;;;2.30;84.10;;;;;;1924345;74;21096;-43
2022/01/17 00:20:26;;;;;;;5.30;2.22;;;2.30;83.70;;;;;;1922232;74;21713;-42
2022/01/17 00:22:54;;;;;;;3.65;2.30;;;2.30;83.40;;;;;;1924594;74;21522;-43
2022/01/17 00:25:23;;;;;;;3.58;2.20;;;2.30;83.70;;;;;;1924651;74;21027;-42
2022/01/17 00:27:52;;;;;;;5.37;1.82;;;2.40;84.00;;;;;;1924810;74;21446;-43
2022/01/17 00:30:21;;;;;;;3.42;2.77;;;2.40;83.90;;;;;;1924749;74;21109;-43
2022/01/17 00:32:51;;;;;;;3.47;2.30;;;2.40;84.00;;;;;;1924689;74;21022;-43
2022/01/17 00:35:20;;;;;;;3.05;1.90;;;2.50;84.40;;;;;;1924701;74;21031;-43
2022/01/17 00:37:50;;;;;;;4.72;2.20;;;2.60;84.40;;;;;;1924661;74;21018;-43
2022/01/17 00:40:20;;;;;;;2.65;2.08;;;2.70;84.20;;;;;;1924626;74;21070;-42
2022/01/17 00:42:50;;;;;;;3.35;2.27;;;2.80;83.90;;;;;;1924841;74;21116;-42
2022/01/17 00:45:26;;;;;;;6.17;2.65;;;2.80;84.10;;;;;;1924726;74;21148;-42
2022/01/17 00:47:51;;;;;;;5.30;2.35;;;2.90;84.00;;;;;;1924107;74;21017;-42
2022/01/17 00:50:20;;;;;;;3.65;2.62;;;2.90;83.30;;;;;;1924804;74;20999;-44
2022/01/17 00:52:50;;;;;;;3.75;2.25;;;2.90;82.70;;;;;;1924679;74;21010;-42
2022/01/17 00:55:19;;;;;;;5.70;2.60;;;2.80;82.50;;;;;;1924649;74;21127;-43
2022/01/17 00:57:48;;;;;;;4.05;2.30;;;2.70;82.90;;;;;;1924619;74;21091;-43
2022/01/17 01:00:17;;;;;;;4.83;2.45;;;2.60;83.10;;;;;;1924565;74;21148;-42
2022/01/17 01:02:47;;;;;;;3.42;2.20;;;2.60;82.80;;;;;;1924785;74;21080;-42
2022/01/17 01:05:17;;;;;;;2.98;2.50;;;2.50;83.00;;;;;;1924553;74;21046;-42
2022/01/17 01:07:47;;;;;;;2.85;2.20;;;2.50;83.80;;;;;;1924709;74;20995;-43
2022/01/17 01:10:16;;;;;;;5.33;3.10;;;2.60;83.50;;;;;;1924828;74;21018;-42
2022/01/17 01:12:48;;;;;;;5.60;2.42;;;2.60;83.90;;;;;;1924665;74;21015;-42
2022/01/17 01:15:33;;;;;;;3.87;2.95;;;2.60;84.20;;;;;;1924768;74;21446;-42
2022/01/17 01:17:56;;;;;;;6.58;2.47;;;2.70;84.00;;;;;;1923361;74;21030;-42
2022/01/17 01:28:49;;;;;;;4.78;2.40;;;2.80;84.10;;;;;;1924869;74;21073;-42
2022/01/17 01:31:28;;;;;;;5.45;3.55;;;2.90;84.20;;;;;;1924794;74;21019;-43
2022/01/17 01:33:54;;;;;;;3.12;2.67;;;2.90;84.10;;;;;;1923751;74;21085;-43
2022/01/17 01:36:28;;;;;;;5.95;3.30;;;2.90;83.40;;;;;;1924489;74;21141;-43
2022/01/17 01:38:52;;;;;;;6.15;2.85;;;2.90;83.70;;;;;;1922860;74;21453;-42
2022/01/17 01:41:21;;;;;;;5.15;2.42;;;2.90;83.70;;;;;;1924699;74;21022;-42
2022/01/17 01:43:51;;;;;;;3.10;2.40;;;2.90;83.60;;;;;;1924843;74;21097;-42
2022/01/17 01:46:20;;;;;;;3.98;2.00;;;3.00;83.30;;;;;;1924755;74;21047;-42
2022/01/17 01:48:49;;;;;;;4.75;2.67;;;2.90;83.00;;;;;;1924728;74;21050;-43
2022/01/17 01:51:20;;;;;;;2.90;2.02;;;2.90;82.80;;;;;;1924718;74;21018;-42
2022/01/17 01:53:49;;;;;;;4.80;2.22;;;2.80;83.40;;;;;;1924736;74;21077;-42
2022/01/17 01:56:19;;;;;;;3.27;2.08;;;2.90;84.00;;;;;;1924732;74;21042;-42
2022/01/17 01:58:48;;;;;;;4.20;2.45;;;2.90;83.90;;;;;;1924740;74;21019;-41
2022/01/17 02:01:18;;;;;;;2.70;2.20;;;3.00;83.90;;;;;;1924684;74;21022;-43
2022/01/17 02:03:47;;;;;;;4.80;2.55;;;3.00;84.10;;;;;;1924754;74;21075;-42
2022/01/17 02:06:16;;;;;;;5.12;2.55;;;3.00;84.10;;;;;;1908751;74;21059;-42
2022/01/17 02:08:46;;;;;;;5.62;2.33;;;3.10;84.00;;;;;;1905410;75;21020;-42
2022/01/17 02:11:16;;;;;;;4.42;2.40;;;3.20;84.30;;;;;;1905270;75;21019;-42
2022/01/17 02:13:46;;;;;;;5.50;3.67;;;3.20;83.90;;;;;;1905277;75;21099;-42
2022/01/17 02:16:16;;;;;;;4.67;3.30;;;3.20;83.70;;;;;;1905363;75;21015;-42
2022/01/17 02:18:46;;;;;;;5.12;2.87;;;3.20;83.70;;;;;;1905207;75;21047;-42
2022/01/17 02:23:49;;;;;;;4.50;2.90;;;3.10;83.30;;;;;;1905274;75;21012;-42
2022/01/17 02:26:20;;;;;;;3.42;2.65;;;3.10;82.80;;;;;;1905344;75;21031;-42
2022/01/17 02:28:52;;;;;;;3.80;2.62;;;3.00;83.20;;;;;;1905254;75;21059;-43
2022/01/17 02:31:23;;;;;;;3.55;2.33;;;3.00;83.30;;;;;;1905353;75;21031;-42
2022/01/17 02:33:53;;;;;;;8.13;2.55;;;2.90;83.10;;;;;;1905244;75;20992;-44
2022/01/17 02:36:23;;;;;;;3.08;2.08;;;2.90;83.30;;;;;;1905192;75;21073;-43
2022/01/17 02:38:52;;;;;;;3.45;2.50;;;2.80;83.30;;;;;;1905169;74;21023;-43
2022/01/17 02:41:22;;;;;;;5.35;2.47;;;2.80;83.50;;;;;;1905209;75;21035;-42
2022/01/17 02:43:51;;;;;;;7.12;2.67;;;2.90;84.20;;;;;;1905206;74;21016;-42
2022/01/17 02:46:27;;;;;;;4.72;2.98;;;2.90;84.30;;;;;;1905208;74;21039;-42
2022/01/17 02:48:59;;;;;;;3.77;2.42;;;3.00;84.40;;;;;;1905341;74;21078;-42
2022/01/17 02:51:29;;;;;;;3.90;2.98;;;3.00;84.30;;;;;;1905282;75;21482;-43
2022/01/17 02:53:59;;;;;;;4.35;2.37;;;3.10;84.30;;;;;;1905404;75;21015;-43
2022/01/17 02:56:29;;;;;;;4.20;2.22;;;3.10;84.20;;;;;;1905231;75;21016;-42
2022/01/17 02:58:58;;;;;;;4.90;2.65;;;3.10;83.80;;;;;;1905205;75;21015;-42
2022/01/17 03:01:28;;;;;;;2.90;2.25;;;3.10;83.70;;;;;;1905302;75;21097;-42
2022/01/17 03:03:59;;;;;;;2.92;2.05;;;3.10;83.50;;;;;;1905314;75;21117;-42
2022/01/17 03:06:29;;;;;;;2.45;2.22;;;3.10;83.90;;;;;;1905517;75;21105;-43
2022/01/17 03:08:58;;;;;;;2.77;2.25;;;3.10;83.70;;;;;;1905268;75;21019;-43
2022/01/17 03:11:28;;;;;;;3.98;2.17;;;3.10;84.20;;;;;;1905424;75;21098;-44
2022/01/17 03:13:58;;;;;;;2.55;1.98;;;3.10;83.50;;;;;;1905298;75;21023;-43
2022/01/17 03:16:33;;;;;;;4.08;2.20;;;3.10;83.50;;;;;;1905271;75;21071;-42
2022/01/17 03:19:01;;;;;;;4.42;2.50;;;3.10;83.50;;;;;;1905200;74;21047;-42
2022/01/17 03:21:32;;;;;;;4.45;2.45;;;3.10;83.10;;;;;;1905345;75;21066;-42
2022/01/17 03:24:01;;;;;;;2.58;2.20;;;3.00;83.70;;;;;;1905419;75;21435;-43
2022/01/17 03:26:31;;;;;;;4.40;2.10;;;3.00;83.20;;;;;;1905330;75;21039;-42
2022/01/17 03:29:01;;;;;;;5.50;2.10;;;3.00;83.40;;;;;;1905296;75;21075;-43
2022/01/17 03:31:31;;;;;;;8.40;2.65;;;3.00;82.90;;;;;;1905313;75;21132;-42
2022/01/17 03:34:00;;;;;;;4.65;2.25;;;3.00;82.90;;;;;;1905316;75;21062;-42
2022/01/17 03:36:29;;;;;;;6.35;2.60;;;3.00;83.70;;;;;;1905288;75;20999;-41
2022/01/17 03:38:58;;;;;;;4.28;2.70;;;3.00;83.60;;;;;;1905168;75;21439;-44
2022/01/17 03:41:28;;;;;;;3.47;2.50;;;3.00;84.00;;;;;;1905285;75;21093;-42
2022/01/17 03:43:57;;;;;;;4.90;2.98;;;3.00;83.80;;;;;;1905356;75;21039;-42
2022/01/17 03:46:26;;;;;;;2.67;2.10;;;3.10;83.80;;;;;;1905303;75;21077;-42
2022/01/17 03:48:55;;;;;;;3.85;2.40;;;3.10;83.50;;;;;;1905217;75;21018;-42
2022/01/17 03:51:25;;;;;;;2.98;2.67;;;3.10;83.60;;;;;;1905394;75;21085;-42
2022/01/17 03:53:55;;;;;;;2.52;2.15;;;3.10;83.40;;;;;;1905339;75;21000;-42
2022/01/17 03:56:24;;;;;;;3.33;2.70;;;3.10;83.70;;;;;;1905374;75;21478;-42
2022/01/17 03:58:54;;;;;;;9.40;3.85;;;3.10;83.10;;;;;;1905243;75;21027;-42
2022/01/17 04:01:23;;;;;;;4.10;2.87;;;3.10;82.40;;;;;;1905330;74;20995;-42
2022/01/17 04:03:52;;;;;;;2.47;2.20;;;3.10;82.90;;;;;;1905251;75;21023;-43
2022/01/17 04:06:23;;;;;;;4.42;2.90;;;3.00;82.40;;;;;;1911457;74;21058;-42
2022/01/17 04:08:52;;;;;;;4.22;2.72;;;3.00;82.10;;;;;;1924660;74;21030;-42
2022/01/17 04:11:23;;;;;;;3.55;2.83;;;3.00;82.80;;;;;;1924584;74;20987;-42
2022/01/17 04:13:52;;;;;;;5.10;2.52;;;2.90;83.20;;;;;;1924608;74;21084;-43
2022/01/17 04:16:22;;;;;;;2.70;1.85;;;3.00;83.40;;;;;;1924623;74;21019;-43
2022/01/17 04:18:53;;;;;;;3.22;1.75;;;3.00;83.10;;;;;;1924550;74;21049;-42
2022/01/17 04:21:22;;;;;;;2.77;1.98;;;3.10;83.20;;;;;;1924506;74;21088;-41
2022/01/17 04:23:51;;;;;;;1.95;1.75;;;3.10;82.30;;;;;;1924480;74;21057;-42
2022/01/17 04:26:21;;;;;;;4.78;2.17;;;3.10;83.20;;;;;;1924517;74;21030;-44
2022/01/17 04:28:51;;;;;;;3.87;2.87;;;3.10;83.10;;;;;;1924546;74;21086;-43
2022/01/17 04:31:20;;;;;;;11.60;5.50;;;3.20;83.20;;;;;;1924524;74;21000;-42
2022/01/17 04:33:50;;;;;;;7.05;3.60;;;3.20;83.20;;;;;;1924486;74;20987;-42
2022/01/17 04:36:19;;;;;;;3.33;2.20;;;3.20;82.90;;;;;;1924552;74;21010;-42
2022/01/17 04:38:48;;;;;;;3.87;2.37;;;3.30;83.00;;;;;;1924454;74;20998;-42
2022/01/17 04:41:21;;;;;;;3.37;2.10;;;3.20;82.60;;;;;;1924490;74;21090;-43
2022/01/17 04:46:20;;;;;;;2.45;1.90;;;3.20;82.40;;;;;;1924639;74;21006;-43
2022/01/17 04:48:49;;;;;;;1.95;1.80;;;3.20;82.80;;;;;;1924501;74;21088;-43
2022/01/17 04:51:18;;;;;;;2.33;1.80;;;3.20;82.60;;;;;;1924656;74;21088;-43
2022/01/17 04:54:04;;;;;;;6.95;1.95;;;3.20;82.60;;;;;;1924614;74;21018;-43
2022/01/17 04:56:19;;;;;;;2.65;1.52;;;3.20;82.60;;;;;;1922137;74;21015;-43
2022/01/17 04:58:48;;;;;;;5.85;1.95;;;3.20;82.00;;;;;;1924475;74;21073;-44
2022/01/17 05:01:17;;;;;;;4.35;1.75;;;3.20;81.80;;;;;;1924525;74;21046;-43
2022/01/17 05:03:47;;;;;;;1.65;1.52;;;3.20;82.00;;;;;;1924631;74;21105;-43
2022/01/17 05:06:16;;;;;;;1.85;1.65;;;3.10;82.00;;;;;;1924636;74;21018;-43
2022/01/17 05:08:46;;;;;;;17.15;8.58;;;3.10;82.10;;;;;;1924569;74;21076;-43
2022/01/17 05:11:15;;;;;;;7.20;3.85;;;3.10;82.30;;;;;;1924569;74;21031;-43
2022/01/17 05:13:48;;;;;;;5.37;2.52;;;3.00;81.80;;;;;;1924624;74;21023;-43
2022/01/17 05:16:17;;;;;;;2.47;2.27;;;3.00;81.70;;;;;;1924548;74;21080;-43
2022/01/17 05:21:17;;;;;;;3.65;2.33;;;3.00;80.60;;;;;;1924627;74;21014;-44
2022/01/17 05:23:46;;;;;;;4.37;2.08;;;2.90;81.40;;;;;;1924634;74;21026;-44
2022/01/17 05:26:16;;;;;;;7.35;2.72;;;2.90;81.00;;;;;;1924629;74;21076;-44
2022/01/17 05:28:45;;;;;;;8.43;3.27;;;2.90;81.20;;;;;;1924538;74;21018;-43
2022/01/17 05:31:16;;;;;;;2.75;2.15;;;2.90;80.20;;;;;;1924567;74;21042;-44
2022/01/17 05:33:45;;;;;;;6.20;2.15;;;2.90;80.50;;;;;;1924587;74;21469;-45
2022/01/17 05:36:14;;;;;;;3.35;2.70;;;2.80;80.60;;;;;;1924631;74;21140;-43
2022/01/17 05:38:44;;;;;;;5.60;2.77;;;2.80;80.40;;;;;;1924565;74;21017;-43
2022/01/17 05:41:13;;;;;;;4.03;2.02;;;2.80;80.90;;;;;;1924519;74;21174;-43
2022/01/17 05:43:42;;;;;;;4.25;2.10;;;2.80;79.90;;;;;;1924687;74;21038;-43
2022/01/17 05:46:12;;;;;;;13.68;5.97;;;2.80;80.60;;;;;;1924578;74;21065;-44
2022/01/17 05:48:42;;;;;;;19.95;7.35;;;2.80;78.50;;;;;;1924546;74;21089;-43
2022/01/17 05:51:11;;;;;;;8.23;4.33;;;2.80;79.10;;;;;;1924632;74;21065;-44
2022/01/17 05:53:40;;;;;;;6.45;3.05;;;2.70;79.10;;;;;;1924579;74;20998;-44
2022/01/17 05:56:10;;;;;;;4.45;3.45;;;2.70;80.40;;;;;;1924651;74;21076;-44
2022/01/17 05:58:39;;;;;;;6.33;3.90;;;2.80;80.50;;;;;;1924509;74;21080;-44
2022/01/17 06:01:09;;;;;;;7.47;3.52;;;2.80;80.80;;;;;;1924581;74;21022;-43
2022/01/17 06:03:38;;;;;;;2.72;2.20;;;2.80;80.70;;;;;;1924648;74;21011;-44
2022/01/17 06:06:08;;;;;;;3.37;2.55;;;2.90;81.00;;;;;;1924560;74;21043;-44
2022/01/17 06:08:37;;;;;;;3.17;2.75;;;3.00;80.80;;;;;;1910493;74;21047;-44
2022/01/17 06:11:07;;;;;;;6.65;3.77;;;3.00;80.50;;;;;;1905329;75;21086;-43
2022/01/17 06:13:36;;;;;;;7.25;4.53;;;3.10;81.20;;;;;;1905167;75;21000;-43
2022/01/17 06:16:06;;;;;;;9.25;5.17;;;3.10;80.30;;;;;;1905189;74;21016;-43
2022/01/17 06:18:35;;;;;;;6.75;4.03;;;3.20;80.00;;;;;;1905251;74;21023;-44
2022/01/17 06:21:05;;;;;;;5.53;3.17;;;3.20;79.40;;;;;;1905443;75;21023;-44
2022/01/17 06:23:34;;;;;;;4.72;3.85;;;3.20;80.00;;;;;;1905249;75;21016;-45
2022/01/17 06:26:04;;;;;;;4.22;2.75;;;3.30;80.70;;;;;;1905306;75;21015;-44
2022/01/17 06:28:33;;;;;;;6.65;3.17;;;3.30;80.10;;;;;;1905328;75;21019;-44
2022/01/17 06:31:03;;;;;;;4.25;2.90;;;3.30;80.30;;;;;;1905277;74;21011;-44
2022/01/17 06:33:32;;;;;;;5.72;3.95;;;3.40;80.70;;;;;;1905306;75;21081;-44
2022/01/17 06:36:01;;;;;;;3.85;2.87;;;3.40;80.50;;;;;;1905415;75;21016;-43
2022/01/17 06:38:31;;;;;;;6.53;3.47;;;3.40;80.80;;;;;;1905384;75;21051;-43
2022/01/17 06:41:00;;;;;;;5.95;3.12;;;3.50;81.10;;;;;;1905169;75;21077;-42
2022/01/17 06:43:30;;;;;;;4.92;3.08;;;3.60;80.90;;;;;;1905251;75;21073;-43
2022/01/17 06:45:59;;;;;;;5.08;3.65;;;3.70;80.90;;;;;;1905159;74;21015;-44
2022/01/17 06:48:29;;;;;;;7.17;3.83;;;3.70;80.60;;;;;;1905218;75;21085;-43
2022/01/17 06:50:58;;;;;;;4.72;3.30;;;3.80;80.90;;;;;;1905385;75;21027;-42
2022/01/17 06:53:28;;;;;;;7.12;3.70;;;3.80;80.40;;;;;;1905193;75;21023;-42
2022/01/17 06:55:57;;;;;;;5.12;2.70;;;3.80;80.80;;;;;;1905225;75;21077;-42
2022/01/17 06:58:27;;;;;;;6.75;3.40;;;3.90;80.60;;;;;;1905321;75;21023;-42
2022/01/17 07:00:56;;;;;;;6.45;3.50;;;3.90;80.80;;;;;;1905190;75;21081;-43
2022/01/17 07:03:26;;;;;;;5.20;3.30;;;3.90;79.80;;;;;;1905166;75;21019;-42
2022/01/17 07:05:55;;;;;;;11.57;4.25;;;3.90;80.00;;;;;;1905191;75;21097;-42
2022/01/17 07:08:24;;;;;;;5.08;3.60;;;3.80;80.40;;;;;;1912393;74;21117;-43
2022/01/17 07:10:54;;;;;;;5.37;2.60;;;3.90;80.10;;;;;;1924676;74;21096;-43
2022/01/17 07:13:23;;;;;;;5.60;2.90;;;3.90;80.40;;;;;;1924520;74;21039;-42
2022/01/17 07:15:52;;;;;;;4.37;3.08;;;3.80;79.90;;;;;;1924576;74;21139;-42
2022/01/17 07:18:22;;;;;;;7.28;4.15;;;3.80;79.50;;;;;;1924672;74;21003;-43
2022/01/17 07:20:51;;;;;;;5.97;3.20;;;3.80;79.50;;;;;;1924634;74;21043;-42
2022/01/17 07:23:21;;;;;;;10.80;5.87;;;3.80;78.60;;;;;;1924414;74;21026;-43
2022/01/17 07:25:50;;;;;;;8.38;4.00;;;3.80;78.50;;;;;;1924505;74;21022;-42
2022/01/17 07:28:19;;;;;;;9.15;4.53;;;3.70;78.30;;;;;;1924497;74;21413;-43
2022/01/17 07:30:49;;;;;;;6.40;3.58;;;3.80;79.20;;;;;;1924591;74;21099;-43
2022/01/17 07:33:20;;;;;;;6.92;3.67;;;3.80;78.40;;;;;;1924642;74;21023;-43
2022/01/17 07:35:49;;;;;;;6.70;3.33;;;3.80;78.90;;;;;;1924669;74;21011;-43
2022/01/17 07:38:18;;;;;;;7.62;3.30;;;3.80;78.40;;;;;;1924620;74;21019;-42
2022/01/17 07:40:48;;;;;;;3.98;2.83;;;3.90;78.10;;;;;;1924608;74;21026;-42
2022/01/17 07:43:17;;;;;;;4.78;3.02;;;3.90;78.40;;;;;;1924476;74;21042;-43
2022/01/17 07:46:04;;;;;;;4.30;3.35;;;3.90;78.60;;;;;;1924669;74;21018;-42
2022/01/17 07:48:56;;;;;;;4.33;3.10;;;4.00;78.80;;;;;;1922145;74;20999;-42
2022/01/17 07:51:03;;;;;;;4.20;2.77;;;4.00;78.80;;;;;;1921413;74;20995;-43
2022/01/17 07:53:33;;;;;;;3.83;2.77;;;4.00;78.30;;;;;;1924646;74;21128;-42
2022/01/17 07:56:02;;;;;;;7.85;3.08;;;4.00;78.30;;;;;;1924715;74;21066;-42
2022/01/17 07:58:31;;;;;;;5.00;2.25;;;4.00;77.80;;;;;;1924577;74;21011;-43
2022/01/17 08:01:01;;;;;;;2.37;2.10;;;4.10;78.10;;;;;;1924933;74;21092;-42
2022/01/17 08:03:30;;;;;;;4.58;2.30;;;4.10;77.30;;;;;;1924705;74;21011;-42
2022/01/17 08:06:00;;;;;;;2.40;2.10;;;4.10;77.60;;;;;;1924735;74;21041;-42
2022/01/17 08:08:29;;;;;;;6.12;2.37;;;4.10;78.40;;;;;;1921474;74;21047;-42
2022/01/17 08:10:59;;;;;;;3.92;2.47;;;4.10;78.00;;;;;;1905225;75;21016;-42
2022/01/17 08:13:28;;;;;;;7.72;4.42;;;4.20;78.50;;;;;;1905233;75;21085;-43
2022/01/17 08:15:58;;;;;;;2.85;2.50;;;4.20;78.40;;;;;;1905285;75;21105;-43
2022/01/17 08:18:27;;;;;;;5.22;2.22;;;4.20;78.60;;;;;;1905361;75;21008;-43
2022/01/17 08:20:58;;;;;;;2.75;2.10;;;4.20;78.00;;;;;;1905370;75;21023;-42
2022/01/17 08:23:27;;;;;;;5.80;2.20;;;4.20;77.90;;;;;;1905331;75;21015;-43
2022/01/17 08:25:56;;;;;;;1.70;1.52;;;4.30;77.80;;;;;;1905332;75;21085;-42
2022/01/17 08:28:25;;;;;;;2.67;1.70;;;4.30;77.10;;;;;;1905337;75;21084;-43
2022/01/17 08:30:55;;;;;;;2.52;1.70;;;4.30;77.20;;;;;;1905475;75;21019;-43
2022/01/17 08:33:24;;;;;;;4.70;3.15;;;4.30;76.80;;;;;;1905378;75;21051;-43
2022/01/17 08:35:53;;;;;;;4.00;2.95;;;4.30;77.50;;;;;;1905465;75;21043;-43
2022/01/17 08:38:24;;;;;;;2.25;1.50;;;4.30;77.70;;;;;;1904230;74;21106;-41
2022/01/17 08:40:53;;;;;;;2.22;1.95;;;4.40;79.40;;;;;;1904663;75;21011;-40
2022/01/17 10:16:45;;;;;;;1.98;1.25;;;5.50;73.80;;;;;;1972895;72;26244;-44
2022/01/17 10:19:15;;;;;;;4.92;1.32;;;5.50;74.80;;;;;;1948136;73;21038;-44
2022/01/17 10:21:49;;;;;;;7.30;1.80;;;5.50;74.70;;;;;;1948309;73;21405;-44
2022/01/17 10:24:23;;;;;;;1.55;1.42;;;5.50;74.90;;;;;;1947876;73;21050;-44
2022/01/17 10:35:28;;;;;;;2.67;1.15;;;5.70;75.60;;;;;;1948193;73;21027;-44
2022/01/17 10:38:00;;;;;;;2.00;1.30;;;5.60;77.60;;;;;;1948331;73;20999;-47
2022/01/17 10:40:34;;;;;;;1.47;1.37;;;5.60;78.20;;;;;;1948253;73;21474;-44
2022/01/17 10:43:05;;;;;;;1.75;1.30;;;5.70;78.50;;;;;;1948474;73;21086;-45
2022/01/17 10:45:40;;;;;;;0.98;0.75;;;5.70;78.10;;;;;;1948349;73;21046;-45
2022/01/17 10:48:10;;;;;;;2.25;1.42;;;5.70;77.50;;;;;;1948425;73;20991;-44
2022/01/17 10:50:42;;;;;;;1.02;0.75;;;5.70;77.20;;;;;;1948531;73;21055;-44
2022/01/17 10:53:14;;;;;;;5.87;2.17;;;5.70;77.20;;;;;;1948355;73;21062;-44
2022/01/17 10:55:49;;;;;;;5.30;1.50;;;5.70;77.40;;;;;;1948489;73;21076;-45
2022/01/17 10:58:23;;;;;;;2.22;1.25;;;5.70;77.60;;;;;;1948600;73;21011;-43
2022/01/17 11:00:54;;;;;;;1.45;1.30;;;5.70;77.30;;;;;;1948435;73;21074;-45
2022/01/17 11:03:31;;;;;;;2.33;1.27;;;5.70;77.40;;;;;;1948222;73;21118;-44
2022/01/17 11:06:03;;;;;;;1.67;1.02;;;5.70;76.80;;;;;;1948307;73;21132;-44
2022/01/17 11:08:34;;;;;;;1.77;1.27;;;5.80;77.30;;;;;;1948387;73;21054;-44
2022/01/17 11:11:06;;;;;;;1.35;1.25;;;5.80;77.20;;;;;;1948203;73;21011;-45
2022/01/17 11:13:38;;;;;;;4.25;1.50;;;5.80;77.10;;;;;;1948398;73;21779;-44
2022/01/17 11:16:11;;;;;;;3.35;1.40;;;5.80;77.20;;;;;;1945516;73;21536;-44
2022/01/17 11:18:43;;;;;;;3.58;1.75;;;5.80;76.90;;;;;;1942935;74;21176;-43
2022/01/17 11:21:15;;;;;;;4.55;2.60;;;5.90;77.10;;;;;;1943051;74;21047;-43
2022/01/17 11:23:47;;;;;;;3.05;1.17;;;5.90;77.50;;;;;;1943116;74;21078;-44
2022/01/17 11:26:18;;;;;;;6.10;1.40;;;5.90;76.70;;;;;;1942859;74;21352;-45
2022/01/17 11:28:54;;;;;;;1.47;1.20;;;6.00;76.60;;;;;;1942386;73;21050;-45
2022/01/17 11:31:18;;;;;;;1.65;1.37;;;6.00;76.80;;;;;;1941433;74;21538;-45
2022/01/17 11:33:48;;;;;;;2.60;1.27;;;6.00;75.20;;;;;;1942311;74;21043;-44
2022/01/17 11:36:18;;;;;;;1.75;1.20;;;6.00;74.10;;;;;;1942481;73;21011;-45
2022/01/17 11:38:57;;;;;;;3.98;1.82;;;6.00;74.90;;;;;;1942430;74;21097;-45
2022/01/17 11:41:36;;;;;;;3.75;2.40;;;6.00;76.10;;;;;;1940495;74;21073;-45
2022/01/17 11:44:09;;;;;;;1.22;1.05;;;6.00;75.60;;;;;;1942479;74;21120;-44
2022/01/17 11:46:48;;;;;;;2.17;1.85;;;6.00;75.90;;;;;;1942324;74;21015;-44
2022/01/17 11:49:31;;;;;;;3.20;1.60;;;6.00;75.60;;;;;;1942430;74;21043;-44
2022/01/17 11:51:59;;;;;;;4.80;2.08;;;6.00;76.60;;;;;;1942481;74;21104;-46
2022/01/17 11:54:29;;;;;;;2.27;0.90;;;5.90;77.00;;;;;;1942375;74;21077;-45
2022/01/17 11:57:04;;;;;;;5.58;1.57;;;5.90;78.10;;;;;;1942380;74;21066;-44
2022/01/17 11:59:39;;;;;;;12.75;7.17;;;5.80;77.70;;;;;;1942561;74;21086;-44
2022/01/17 12:02:25;;;;;;;;;;;5.80;78.20;;;;;;1944842;74;21098;-44
2022/01/17 12:05:11;;;;;;;2.50;1.35;;;5.70;78.60;;;;;;1942540;74;20287;-45
2022/01/17 12:07:54;;;;;;;2.15;1.70;;;5.70;78.40;;;;;;1942537;74;21125;-44
2022/01/17 12:10:29;;;;;;;10.03;1.60;;;5.70;78.80;;;;;;1942306;74;21019;-46
2022/01/17 12:13:23;;;;;;;3.70;2.52;;;5.70;78.60;;;;;;1942529;73;21027;-44
2022/01/17 12:16:09;;;;;;;3.05;1.45;;;5.70;78.90;;;;;;1891720;76;21195;-45
2022/01/17 12:18:40;;;;;;;2.60;1.35;;;5.70;78.90;;;;;;1925871;74;21026;-44
2022/01/17 12:21:34;;;;;;;1.80;1.57;;;5.70;79.10;;;;;;1927035;73;21027;-45
2022/01/17 12:24:22;;;;;;;2.45;1.02;;;5.60;78.80;;;;;;1926794;74;21066;-44
2022/01/17 12:27:02;;;;;;;2.45;1.37;;;5.60;78.60;;;;;;1926819;74;21080;-44
2022/01/17 12:29:51;;;;;;;3.10;1.05;;;5.60;78.90;;;;;;1926859;74;21469;-43
2022/01/17 12:32:31;;;;;;;2.52;1.50;;;5.60;79.40;;;;;;1926728;74;21043;-44
2022/01/17 12:35:08;;;;;;;4.83;1.40;;;5.60;79.10;;;;;;1926793;74;21123;-46
2022/01/17 12:37:42;;;;;;;2.83;1.52;;;5.60;78.80;;;;;;1847154;78;21046;-44
2022/01/17 12:40:19;;;;;;;2.87;1.27;;;5.50;78.90;;;;;;1926872;73;20991;-44
2022/01/17 12:43:01;;;;;;;2.45;1.07;;;5.50;79.00;;;;;;1926918;74;21034;-45
2022/01/17 12:45:32;;;;;;;1.65;1.47;;;5.50;79.40;;;;;;1926746;74;21077;-44
2022/01/17 12:48:04;;;;;;;3.27;1.15;;;5.40;79.40;;;;;;1926870;73;21461;-45
2022/01/17 12:50:34;;;;;;;5.72;1.62;;;5.50;80.50;;;;;;1926804;73;21472;-42
2022/01/17 12:53:06;;;;;;;1.57;1.42;;;5.40;80.50;;;;;;1927603;74;21108;-43
2022/01/17 12:55:40;;;;;;;2.92;1.35;;;5.30;81.20;;;;;;1927563;74;21088;-45
2022/01/17 12:58:18;;;;;;;3.25;1.65;;;5.30;81.90;;;;;;1927694;73;21080;-44
2022/01/17 13:01:01;;;;;;;2.17;1.75;;;5.30;81.20;;;;;;1927483;74;21019;-44
2022/01/17 13:03:33;;;;;;;1.12;0.90;;;5.20;81.80;;;;;;1927610;74;21100;-45
2022/01/17 13:06:12;;;;;;;1.67;1.20;;;5.20;82.20;;;;;;1927766;74;21018;-46
2022/01/17 13:08:49;;;;;;;3.67;2.00;;;5.10;82.90;;;;;;1927648;74;21035;-45
2022/01/17 13:11:24;;;;;;;5.00;1.55;;;5.10;83.30;;;;;;1927441;74;21019;-45
2022/01/17 13:14:01;;;;;;;5.70;1.52;;;5.00;83.20;;;;;;1927616;74;21030;-45
2022/01/17 13:16:34;;;;;;;4.40;2.77;;;5.00;82.90;;;;;;1931766;73;21062;-44
2022/01/17 13:19:04;;;;;;;2.85;1.80;;;5.00;83.10;;;;;;1948301;74;21081;-45
2022/01/17 13:21:37;;;;;;;8.20;2.40;;;5.00;82.70;;;;;;1948275;73;21052;-44
2022/01/17 13:24:33;;;;;;;2.60;1.55;;;5.10;83.30;;;;;;1948426;74;21046;-44
2022/01/17 13:26:56;;;;;;;3.42;1.85;;;5.10;83.30;;;;;;1945796;73;21022;-45
2022/01/17 13:29:26;;;;;;;3.00;2.05;;;5.10;83.00;;;;;;1948593;74;20987;-45
2022/01/17 13:31:56;;;;;;;3.83;2.10;;;5.10;82.60;;;;;;1948372;73;20998;-44
2022/01/17 13:34:30;;;;;;;8.43;2.45;;;5.10;82.90;;;;;;1948457;74;21080;-44
2022/01/17 13:37:05;;;;;;;2.50;1.50;;;5.10;83.10;;;;;;1948634;74;21038;-45
2022/01/17 13:39:34;;;;;;;4.17;1.60;;;5.10;83.10;;;;;;1898003;75;21031;-44
2022/01/17 13:42:06;;;;;;;2.37;1.57;;;5.10;82.90;;;;;;1935711;74;21094;-44
2022/01/17 13:44:39;;;;;;;2.12;1.85;;;5.10;82.50;;;;;;1935580;74;21077;-44
2022/01/17 13:47:14;;;;;;;2.47;1.22;;;5.20;82.10;;;;;;1935517;74;21082;-44
2022/01/17 13:49:48;;;;;;;1.98;1.62;;;5.10;81.40;;;;;;1935732;74;21023;-44
2022/01/17 13:52:21;;;;;;;0.93;0.82;;;5.20;81.20;;;;;;1935712;74;21152;-44
2022/01/17 13:54:54;;;;;;;1.05;0.95;;;5.20;81.10;;;;;;1935697;74;21027;-44
2022/01/17 13:57:28;;;;;;;1.72;1.10;;;5.20;80.90;;;;;;1935666;74;21030;-44
2022/01/17 14:00:00;;;;;;;2.60;1.27;;;5.20;80.80;;;;;;1935792;74;21100;-44
2022/01/17 14:02:35;;;;;;;2.70;1.15;;;5.20;80.80;;;;;;1935627;74;21085;-45
2022/01/17 14:05:05;;;;;;;2.15;1.42;;;5.20;80.40;;;;;;1935876;74;20991;-45
2022/01/17 14:07:35;;;;;;;4.72;1.62;;;5.20;80.20;;;;;;1935522;74;21023;-44
2022/01/17 14:10:30;;;;;;;2.00;0.85;;;5.20;80.10;;;;;;1935608;74;21023;-44
2022/01/17 14:12:54;;;;;;;2.77;0.80;;;5.30;79.80;;;;;;1934783;74;21477;-45
2022/01/17 14:15:28;;;;;;;9.05;1.52;;;5.30;79.50;;;;;;1935535;74;21101;-44
2022/01/17 14:18:09;;;;;;;0.68;0.68;;;5.30;79.00;;;;;;1939779;73;21050;-45
2022/01/17 14:20:50;;;;;;;2.52;1.27;;;5.30;77.90;;;;;;1943015;74;21090;-45
2022/01/17 14:23:28;;;;;;;1.90;1.42;;;5.40;78.80;;;;;;1889773;76;21097;-44
2022/01/17 14:25:58;;;;;;;1.70;1.25;;;5.40;78.50;;;;;;1856819;77;21034;-45
2022/01/17 14:28:29;;;;;;;1.42;0.95;;;5.40;78.30;;;;;;1856703;77;21030;-44
2022/01/17 14:31:01;;;;;;;3.30;1.25;;;5.40;77.80;;;;;;1856727;77;21042;-44
2022/01/17 14:33:30;;;;;;;3.17;1.25;;;5.40;77.70;;;;;;1855293;77;21512;-45
2022/01/17 14:36:08;;;;;;;0.95;0.80;;;5.50;77.60;;;;;;1856706;77;21102;-44
2022/01/17 14:38:49;;;;;;;0.90;0.90;;;5.50;78.20;;;;;;1890262;76;21094;-45
2022/01/17 14:41:21;;;;;;;5.47;1.57;;;5.40;79.10;;;;;;1890299;76;21100;-47
2022/01/17 14:43:53;;;;;;;0.80;0.80;;;5.40;79.50;;;;;;1890131;76;21113;-44
2022/01/17 14:46:26;;;;;;;1.20;1.10;;;5.30;80.10;;;;;;1890250;76;21030;-44
2022/01/17 14:48:56;;;;;;;1.55;1.20;;;5.30;80.40;;;;;;1890162;76;21077;-44
2022/01/17 14:51:31;;;;;;;3.10;1.10;;;5.30;80.20;;;;;;1890165;76;21022;-44
2022/01/17 14:54:09;;;;;;;;;;;5.30;80.70;;;;;;1892979;76;21035;-44
2022/01/17 15:02:24;;;;;;;5.60;1.98;;;5.30;80.80;;;;;;1890233;76;21042;-44
2022/01/17 15:04:44;;;;;;;3.02;1.40;;;5.30;80.80;;;;;;1855617;77;21062;-43
2022/01/17 15:07:16;;;;;;;6.87;1.98;;;5.30;80.80;;;;;;1856753;77;21011;-44
2022/01/17 15:09:48;;;;;;;2.08;1.30;;;5.30;80.80;;;;;;1857072;76;21112;-44
2022/01/17 15:12:19;;;;;;;1.10;0.93;;;5.30;80.80;;;;;;1856950;76;21042;-44
2022/01/17 15:14:50;;;;;;;1.50;1.20;;;5.30;80.70;;;;;;1856932;77;21100;-45
2022/01/17 15:17:22;;;;;;;2.87;1.20;;;5.30;80.50;;;;;;1857384;76;21030;-45
2022/01/17 15:19:52;;;;;;;2.98;0.90;;;5.30;80.60;;;;;;1934298;74;21027;-44
2022/01/17 15:22:21;;;;;;;2.08;0.93;;;5.30;80.90;;;;;;1935816;74;21020;-44